Time;durP1;ratioP1;P1;durP2;ratioP2;P2;SDS_P1;SDS_P2;PMS_P1;PMS_P2;Temp;Humidity;BMP_temperature;BMP_pressure;BME280_temperature;BME280_humidity;BME280_pressure;Samples;Min_cycle;Max_cycle;Signal;HPM_P1;HPM_P2
2024/02/21 00:01:23;;;;;;;;;15.25;12.00;;;;;-143.90;100.00;76497.63;4950075;28;101825;-71
2024/02/21 00:03:50;;;;;;;;;14.00;13.00;;;;;-143.90;100.00;76499.72;4944375;28;101902;-70
2024/02/21 00:06:16;;;;;;;;;9.00;7.25;;;;;-143.90;100.00;76497.63;4953965;28;102288;-71
2024/02/21 00:08:43;;;;;;;;;11.75;8.00;;;;;-143.90;100.00;76501.78;4958380;28;103394;-71
2024/02/21 00:11:10;;;;;;;;;8.00;8.00;;;;;-143.90;100.00;76505.91;4935666;28;104132;-70
2024/02/21 00:13:37;;;;;;;;;12.25;8.00;;;;;-143.90;100.00;76510.06;4950294;28;102192;-71
2024/02/21 00:16:04;;;;;;;;;10.75;10.00;;;;;-143.90;100.00;76505.91;4959773;28;102131;-71
2024/02/21 00:18:30;;;;;;;;;10.25;9.00;;;;;-143.90;100.00;76503.84;4950740;28;103846;-70
2024/02/21 00:20:57;;;;;;;;;13.25;12.25;;;;;-143.90;100.00;76505.91;4956332;28;101751;-71
2024/02/21 00:23:24;;;;;;;;;13.75;11.50;;;;;-143.90;100.00;76501.78;4954503;28;101812;-70
2024/02/21 00:25:51;;;;;;;;;6.25;3.00;;;;;-143.90;100.00;76497.63;4950997;28;101965;-70
2024/02/21 00:28:17;;;;;;;;;12.75;11.00;;;;;-143.90;100.00;76516.25;4945819;28;103137;-71
2024/02/21 00:30:44;;;;;;;;;7.50;6.00;;;;;-143.90;100.00;76512.13;4961988;28;101566;-71
2024/02/21 00:33:11;;;;;;;;;5.25;2.50;;;;;-143.90;100.00;76512.13;4919658;28;102799;-71
2024/02/21 00:35:38;;;;;;;;;6.75;5.50;;;;;-143.90;100.00;76512.13;4942904;28;101537;-71
2024/02/21 00:38:05;;;;;;;;;12.00;7.00;;;;;-143.90;100.00;76518.31;4955482;27;103400;-71
2024/02/21 00:40:31;;;;;;;;;7.00;7.00;;;;;-143.90;100.00;76518.31;4960875;28;101898;-72
2024/02/21 00:42:58;;;;;;;;;6.00;5.25;;;;;-143.90;100.00;76514.19;4963471;28;101969;-70
2024/02/21 00:45:27;;;;;;;;;5.50;5.00;;;;;-143.90;100.00;76507.97;4948662;28;105943;-70
2024/02/21 00:47:54;;;;;;;;;13.00;9.75;;;;;-143.90;100.00;76507.97;4959054;28;103357;-71
2024/02/21 00:50:21;;;;;;;;;7.00;6.00;;;;;-143.90;100.00;76499.72;4957734;28;101765;-71
2024/02/21 00:52:48;;;;;;;;;12.00;10.00;;;;;-143.90;100.00;76503.84;4960818;27;102353;-71
2024/02/21 00:55:16;;;;;;;;;8.50;7.00;;;;;-143.90;100.00;76495.56;4940165;28;101637;-71
2024/02/21 00:57:42;;;;;;;;;9.25;7.25;;;;;-143.90;100.00;76489.38;4959605;28;103334;-71
2024/02/21 01:00:09;;;;;;;;;14.00;9.00;;;;;-143.90;100.00;76489.38;4960421;28;102927;-71
2024/02/21 01:02:36;;;;;;;;;8.00;7.00;;;;;-143.90;100.00;76487.31;4940323;28;101866;-70
2024/02/21 01:05:03;;;;;;;;;11.00;10.00;;;;;-143.90;100.00;76489.38;4942784;28;102118;-71
2024/02/21 01:07:30;;;;;;;;;10.50;7.25;;;;;-143.90;100.00;76479.03;4955285;27;103391;-71
2024/02/21 01:09:57;;;;;;;;;14.00;10.50;;;;;-143.90;100.00;76481.09;4959019;28;101517;-71
2024/02/21 01:12:23;;;;;;;;;10.75;8.50;;;;;-143.90;100.00;76479.03;4951597;28;104452;-71
2024/02/21 01:14:50;;;;;;;;;11.75;9.50;;;;;-143.90;100.00;76474.91;4954395;28;101893;-71
2024/02/21 01:17:17;;;;;;;;;11.75;10.00;;;;;-143.90;100.00;76472.81;4932893;28;103610;-71
2024/02/21 01:19:46;;;;;;;;;9.00;6.50;;;;;-143.90;100.00;76481.09;4951190;28;101739;-71
2024/02/21 01:22:13;;;;;;;;;12.00;7.25;;;;;-143.90;100.00;76479.03;4957879;28;101836;-72
2024/02/21 01:24:40;;;;;;;;;12.50;10.00;;;;;-143.90;100.00;76479.03;4960213;27;103689;-70
2024/02/21 01:27:06;;;;;;;;;11.50;10.75;;;;;-143.90;100.00;76476.97;4958230;28;103512;-71
2024/02/21 01:29:33;;;;;;;;;9.50;6.75;;;;;-143.90;100.00;76479.03;4935058;27;103484;-71
2024/02/21 01:32:00;;;;;;;;;11.00;7.75;;;;;-143.90;100.00;76476.97;4946951;28;102693;-71
2024/02/21 01:34:26;;;;;;;;;2.75;1.50;;;;;-143.90;100.00;76472.81;4932163;28;103899;-71
2024/02/21 01:36:59;;;;;;;;;5.75;4.50;;;;;-143.90;100.00;76474.91;4954201;28;108010;-71
2024/02/21 01:39:25;;;;;;;;;8.25;6.50;;;;;-143.90;100.00;76476.97;4951692;28;101964;-71
2024/02/21 01:41:53;;;;;;;;;7.50;6.00;;;;;-143.90;100.00;76479.03;4957387;28;103606;-71
2024/02/21 01:44:20;;;;;;;;;9.50;8.00;;;;;-143.90;100.00;76479.03;4960098;28;101687;-71
2024/02/21 01:46:47;;;;;;;;;10.50;9.00;;;;;-143.90;100.00;76476.97;4940757;28;103415;-71
2024/02/21 01:49:14;;;;;;;;;13.50;9.50;;;;;-143.90;100.00;76483.16;4916244;28;102306;-71
2024/02/21 01:51:41;;;;;;;;;15.25;9.25;;;;;-143.90;100.00;76479.03;4955488;28;101916;-71
2024/02/21 01:54:08;;;;;;;;;11.00;10.00;;;;;-143.90;100.00;76474.91;4956711;28;104567;-71
2024/02/21 01:56:35;;;;;;;;;10.00;7.00;;;;;-143.90;100.00;76474.91;4956263;28;103341;-71
2024/02/21 01:59:02;;;;;;;;;14.75;11.00;;;;;-143.90;100.00;76476.97;4946323;28;102595;-70
2024/02/21 02:01:31;;;;;;;;;9.75;8.50;;;;;-143.90;100.00;76470.75;4971544;28;102239;-71
2024/02/21 02:03:59;;;;;;;;;17.25;13.75;;;;;-143.90;100.00;76474.91;4933867;27;101597;-71
2024/02/21 02:06:26;;;;;;;;;12.25;10.50;;;;;-143.90;100.00;76472.81;4940962;28;103857;-71
2024/02/21 02:08:54;;;;;;;;;11.75;10.75;;;;;-143.90;100.00;76479.03;4961705;28;102043;-71
2024/02/21 02:11:21;;;;;;;;;14.00;12.00;;;;;-143.90;100.00;76481.09;4950662;28;101934;-71
2024/02/21 02:13:48;;;;;;;;;13.00;11.75;;;;;-143.90;100.00;76476.97;4954554;28;101566;-71
2024/02/21 02:16:14;;;;;;;;;22.00;15.00;;;;;-143.90;100.00;76479.03;4958109;28;103234;-70
2024/02/21 02:18:41;;;;;;;;;12.00;11.25;;;;;-143.90;100.00;76476.97;4946253;28;101828;-71
2024/02/21 02:21:22;;;;;;;;;14.50;12.75;;;;;-143.90;100.00;76474.91;4951851;28;101539;-70
2024/02/21 02:23:49;;;;;;;;;12.75;10.50;;;;;-143.90;100.00;76474.91;4958065;28;102022;-71
2024/02/21 02:26:16;;;;;;;;;13.50;8.25;;;;;-143.90;100.00;76479.03;4957882;28;104244;-71
2024/02/21 02:28:42;;;;;;;;;14.25;11.00;;;;;-143.90;100.00;76474.91;4956623;28;101845;-71
2024/02/21 02:31:09;;;;;;;;;11.50;11.25;;;;;-143.90;100.00;76470.75;4943637;28;101647;-71
2024/02/21 02:33:36;;;;;;;;;12.50;10.75;;;;;-143.90;100.00;76466.63;4959017;28;102420;-71
2024/02/21 02:36:03;;;;;;;;;15.25;12.50;;;;;-143.90;100.00;76470.75;4957472;28;103087;-71
2024/02/21 02:38:29;;;;;;;;;16.25;12.00;;;;;-143.90;100.00;76479.03;4961598;28;102990;-71
2024/02/21 02:40:56;;;;;;;;;16.00;11.75;;;;;-143.90;100.00;76474.91;4971565;28;101856;-70
2024/02/21 02:43:23;;;;;;;;;16.00;13.25;;;;;-143.90;100.00;76468.69;4954366;28;101998;-71
2024/02/21 02:45:50;;;;;;;;;13.50;10.50;;;;;-143.90;100.00;76470.75;4960239;28;103317;-71
2024/02/21 02:48:16;;;;;;;;;10.50;8.25;;;;;-143.90;100.00;76458.34;4961324;27;102028;-71
2024/02/21 02:50:43;;;;;;;;;16.50;8.00;;;;;-143.90;100.00;76462.47;4978047;28;104156;-71
2024/02/21 02:53:10;;;;;;;;;11.25;10.00;;;;;-143.90;100.00;76468.69;4956905;28;102681;-71
2024/02/21 02:55:37;;;;;;;;;11.75;10.75;;;;;-143.90;100.00;76464.56;4959289;28;103440;-71
2024/02/21 02:58:04;;;;;;;;;2.00;2.00;;;;;-143.90;100.00;76458.34;4963330;28;101489;-71
2024/02/21 03:00:30;;;;;;;;;9.50;8.50;;;;;-143.90;100.00;76448.00;4961451;28;103053;-71
2024/02/21 03:02:57;;;;;;;;;11.00;10.00;;;;;-143.90;100.00;76445.94;4964677;28;101707;-72
2024/02/21 03:05:24;;;;;;;;;11.75;10.75;;;;;-143.90;100.00;76445.94;4952333;28;103796;-71
2024/02/21 03:07:51;;;;;;;;;11.00;10.75;;;;;-143.90;100.00;76443.88;4962488;28;101959;-72
2024/02/21 03:10:18;;;;;;;;;13.25;10.00;;;;;-143.90;100.00;76450.06;4958473;28;101800;-72
2024/02/21 03:12:45;;;;;;;;;10.00;8.00;;;;;-143.90;100.00;76454.22;4962025;28;101952;-71
2024/02/21 03:15:13;;;;;;;;;13.75;10.50;;;;;-143.90;100.00;76462.47;4973048;28;107916;-72
2024/02/21 03:17:41;;;;;;;;;8.50;8.50;;;;;-143.90;100.00;76454.22;4963371;28;102419;-71
2024/02/21 03:20:09;;;;;;;;;8.50;8.50;;;;;-143.90;100.00;76458.34;4963046;28;101514;-72
2024/02/21 03:22:39;;;;;;;;;15.00;11.00;;;;;-143.90;100.00;76452.16;4962116;28;102248;-72
2024/02/21 03:25:06;;;;;;;;;11.00;10.00;;;;;-143.90;100.00;76454.22;4960477;28;103384;-69
2024/02/21 03:27:36;;;;;;;;;15.00;10.25;;;;;-143.90;100.00;76450.06;4942300;28;101926;-72
2024/02/21 03:30:04;;;;;;;;;8.50;7.75;;;;;-143.90;100.00;76450.06;4959992;28;101679;-69
2024/02/21 03:32:31;;;;;;;;;7.25;7.25;;;;;-143.90;100.00;76445.94;4960394;28;101514;-70
2024/02/21 03:34:57;;;;;;;;;10.50;10.25;;;;;-143.90;100.00;76454.22;4959900;28;103504;-70
2024/02/21 03:37:24;;;;;;;;;12.25;9.50;;;;;-143.90;100.00;76456.28;4952795;28;101888;-70
2024/02/21 03:39:51;;;;;;;;;12.00;10.00;;;;;-143.90;100.00;76454.22;4958178;28;103313;-71
2024/02/21 03:42:18;;;;;;;;;9.75;7.50;;;;;-143.90;100.00;76454.22;4962868;28;102304;-70
2024/02/21 03:44:44;;;;;;;;;11.00;9.50;;;;;-143.90;100.00;76452.16;4964819;28;103344;-70
2024/02/21 03:47:11;;;;;;;;;11.75;10.00;;;;;-143.90;100.00;76452.16;4955355;28;103053;-70
2024/02/21 03:49:38;;;;;;;;;12.00;10.75;;;;;-143.90;100.00;76456.28;4961769;28;101704;-71
2024/02/21 03:52:06;;;;;;;;;11.00;6.25;;;;;-143.90;100.00;76458.34;4962544;28;102812;-70
2024/02/21 03:54:32;;;;;;;;;10.75;6.75;;;;;-143.90;100.00;76460.41;4962855;28;105324;-71
2024/02/21 03:56:59;;;;;;;;;10.25;7.00;;;;;-143.90;100.00;76460.41;4961475;28;102726;-71
2024/02/21 03:59:26;;;;;;;;;9.75;7.00;;;;;-143.90;100.00;76462.47;4950737;28;102058;-71
2024/02/21 04:01:53;;;;;;;;;10.00;8.00;;;;;-143.90;100.00;76462.47;4960583;28;104403;-71
2024/02/21 04:04:20;;;;;;;;;6.00;6.00;;;;;-143.90;100.00;76460.41;4958486;28;104369;-71
2024/02/21 04:06:51;;;;;;;;;6.50;6.00;;;;;-143.90;100.00;76458.34;4959473;28;102939;-71
2024/02/21 04:09:18;;;;;;;;;7.00;6.50;;;;;-143.90;100.00;76458.34;4952520;28;101770;-70
2024/02/21 04:11:45;;;;;;;;;9.00;5.25;;;;;-143.90;100.00;76454.22;4961826;28;103831;-70
2024/02/21 04:14:12;;;;;;;;;9.50;7.00;;;;;-143.90;100.00;76450.06;4961083;28;107769;-70
2024/02/21 04:16:39;;;;;;;;;7.00;6.00;;;;;-143.90;100.00;76445.94;4954902;28;101803;-70
2024/02/21 04:19:07;;;;;;;;;10.00;8.75;;;;;-143.90;100.00;76458.34;4954027;28;101854;-69
2024/02/21 04:21:34;;;;;;;;;7.00;5.25;;;;;-143.90;100.00;76450.06;4951887;28;102006;-71
2024/02/21 04:24:03;;;;;;;;;6.75;6.25;;;;;-143.90;100.00;76450.06;4954961;28;103511;-70
2024/02/21 04:26:30;;;;;;;;;10.75;8.75;;;;;-143.90;100.00;76450.06;4966195;28;101635;-71
2024/02/21 04:28:57;;;;;;;;;5.00;5.00;;;;;-143.90;100.00;76445.94;4951649;28;102063;-70
2024/02/21 04:31:24;;;;;;;;;5.00;5.00;;;;;-143.90;100.00;76433.53;4951862;28;103219;-71
2024/02/21 04:33:51;;;;;;;;;11.25;10.00;;;;;-143.90;100.00;76441.81;4956119;27;109631;-71
2024/02/21 04:36:18;;;;;;;;;13.00;9.50;;;;;-143.90;100.00;76441.81;4954656;28;102379;-71
2024/02/21 04:38:45;;;;;;;;;7.00;6.00;;;;;-143.90;100.00;76437.66;4953795;27;101514;-71
2024/02/21 04:41:12;;;;;;;;;3.00;3.00;;;;;-143.90;100.00;76425.25;4948608;28;101906;-71
2024/02/21 04:43:38;;;;;;;;;3.00;3.00;;;;;-143.90;100.00;76429.41;4951134;28;103445;-72
2024/02/21 04:46:05;;;;;;;;;10.25;6.50;;;;;-143.90;100.00;76433.53;4948376;28;101828;-71
2024/02/21 04:48:32;;;;;;;;;6.75;5.25;;;;;-143.90;100.00;76433.53;4952626;27;103934;-71
2024/02/21 04:50:59;;;;;;;;;6.00;5.75;;;;;-143.90;100.00;76433.53;4951797;28;101677;-71
2024/02/21 04:53:26;;;;;;;;;10.25;6.25;;;;;-143.90;100.00;76437.66;4947936;27;103484;-72
2024/02/21 04:55:52;;;;;;;;;8.00;6.00;;;;;-143.90;100.00;76433.53;4951607;28;101989;-71
2024/02/21 04:58:19;;;;;;;;;7.00;4.00;;;;;-143.90;100.00;76437.66;4963635;28;101908;-71
2024/02/21 05:00:46;;;;;;;;;1.50;1.00;;;;;-143.90;100.00;76433.53;4960188;28;101738;-71
2024/02/21 05:03:12;;;;;;;;;3.50;3.50;;;;;-143.90;100.00;76437.66;4943061;28;102779;-71
2024/02/21 05:05:39;;;;;;;;;5.25;3.50;;;;;-143.90;100.00;76423.19;4954000;28;102152;-72
2024/02/21 05:08:06;;;;;;;;;8.00;7.00;;;;;-143.90;100.00;76421.13;4943907;28;101544;-71
2024/02/21 05:10:33;;;;;;;;;4.25;4.25;;;;;-143.90;100.00;76427.31;4955698;28;101471;-71
2024/02/21 05:13:00;;;;;;;;;6.00;5.00;;;;;-143.90;100.00;76417.00;4953929;28;103809;-71
2024/02/21 05:15:27;;;;;;;;;1.75;1.25;;;;;-143.90;100.00;76423.19;4949169;28;103289;-70
2024/02/21 05:17:54;;;;;;;;;5.00;3.00;;;;;-143.90;100.00;76417.00;4954415;28;101602;-71
2024/02/21 05:20:21;;;;;;;;;2.00;2.00;;;;;-143.90;100.00;76425.25;4954542;28;101649;-71
2024/02/21 05:22:48;;;;;;;;;5.25;4.50;;;;;-143.90;100.00;76425.25;4965160;28;103780;-71
2024/02/21 05:25:14;;;;;;;;;16.25;13.25;;;;;-143.90;100.00;76437.66;4942203;28;102042;-71
2024/02/21 05:27:41;;;;;;;;;15.00;13.00;;;;;-143.90;100.00;76450.06;4946516;28;102191;-71
2024/02/21 05:30:09;;;;;;;;;17.00;16.00;;;;;-143.90;100.00;76443.88;4953078;28;102551;-71
2024/02/21 05:32:36;;;;;;;;;20.00;19.25;;;;;-143.90;100.00;76441.81;4955233;27;103763;-71
2024/02/21 05:35:03;;;;;;;;;20.00;18.50;;;;;-143.90;100.00;76445.94;4951719;28;103413;-71
2024/02/21 05:37:30;;;;;;;;;15.75;15.00;;;;;-143.90;100.00;76448.00;4940891;28;101730;-71
2024/02/21 05:39:57;;;;;;;;;18.50;16.00;;;;;-143.90;100.00;76454.22;4953363;28;106128;-72
2024/02/21 05:42:24;;;;;;;;;18.50;14.00;;;;;-143.90;100.00;76450.06;4937470;28;108171;-71
2024/02/21 05:44:50;;;;;;;;;8.50;7.00;;;;;-143.90;100.00;76452.16;4943704;28;101979;-70
2024/02/21 05:47:20;;;;;;;;;10.00;9.50;;;;;-143.90;100.00;76445.94;4938183;28;102000;-70
2024/02/21 05:49:47;;;;;;;;;6.00;6.00;;;;;-143.90;100.00;76445.94;4955294;28;101787;-71
2024/02/21 05:52:14;;;;;;;;;8.50;8.25;;;;;-143.90;100.00;76448.00;4953530;27;104299;-71
2024/02/21 05:54:41;;;;;;;;;6.00;5.25;;;;;-143.90;100.00;76450.06;4953940;28;107159;-71
2024/02/21 05:57:08;;;;;;;;;10.25;7.50;;;;;-143.90;100.00;76445.94;4948115;28;103345;-71
2024/02/21 05:59:36;;;;;;;;;8.50;8.25;;;;;-143.90;100.00;76445.94;4973690;28;101666;-70
2024/02/21 06:02:04;;;;;;;;;12.00;11.00;;;;;-143.90;100.00;76452.16;4952595;28;103365;-70
2024/02/21 06:04:31;;;;;;;;;14.50;13.00;;;;;-143.90;100.00;76441.81;4957443;28;101678;-71
2024/02/21 06:06:58;;;;;;;;;12.50;11.75;;;;;-143.90;100.00;76429.41;4960063;28;102037;-71
2024/02/21 06:09:24;;;;;;;;;14.25;11.50;;;;;-143.90;100.00;76423.19;4961160;28;101994;-72
2024/02/21 06:11:51;;;;;;;;;9.50;9.50;;;;;-143.90;100.00;76417.00;4961702;28;103493;-72
2024/02/21 06:14:19;;;;;;;;;6.75;5.75;;;;;-143.90;100.00;76410.78;4957943;28;103087;-72
2024/02/21 06:16:46;;;;;;;;;11.75;7.25;;;;;-143.90;100.00;76400.44;4965474;28;104543;-72
2024/02/21 06:19:12;;;;;;;;;10.00;7.00;;;;;-143.90;100.00;76400.44;4957165;28;102053;-72
2024/02/21 06:21:40;;;;;;;;;9.00;8.00;;;;;-143.90;100.00;76394.25;4964525;28;103639;-72
2024/02/21 06:24:06;;;;;;;;;11.75;7.75;;;;;-143.90;100.00;76390.09;4964938;28;101425;-71
2024/02/21 06:26:33;;;;;;;;;13.00;11.75;;;;;-143.90;100.00;76385.97;4965372;28;102965;-72
2024/02/21 06:29:01;;;;;;;;;12.00;11.25;;;;;-143.90;100.00;76383.91;4967767;28;101508;-72
2024/02/21 06:31:28;;;;;;;;;11.00;8.00;;;;;-143.90;100.00;76388.03;4961838;28;103736;-71
2024/02/21 06:33:56;;;;;;;;;15.50;12.50;;;;;-143.90;100.00;76369.41;4959657;28;101964;-72
2024/02/21 06:36:23;;;;;;;;;21.50;19.00;;;;;-143.90;100.00;76371.50;4966872;28;101779;-72
2024/02/21 06:38:49;;;;;;;;;17.50;17.00;;;;;-143.90;100.00;76375.63;4967375;28;103184;-73
2024/02/21 06:41:18;;;;;;;;;22.75;19.50;;;;;-143.90;100.00;76367.34;4947271;28;105097;-72
2024/02/21 06:43:46;;;;;;;;;23.00;21.25;;;;;-143.90;100.00;76367.34;4976232;28;101509;-71
2024/02/21 06:46:26;;;;;;;;;24.00;17.00;;;;;-143.90;100.00;76359.09;4965930;28;101456;-72
2024/02/21 06:48:53;;;;;;;;;20.25;17.25;;;;;-143.90;100.00;76350.81;4965814;28;101787;-72
2024/02/21 06:51:20;;;;;;;;;18.25;16.00;;;;;-143.90;100.00;76350.81;4958860;28;103722;-71
2024/02/21 06:53:47;;;;;;;;;23.25;17.50;;;;;-143.90;100.00;76363.22;4966259;28;101451;-71
2024/02/21 06:56:14;;;;;;;;;28.25;19.00;;;;;-143.90;100.00;76361.16;4960849;28;104011;-71
2024/02/21 06:58:41;;;;;;;;;20.25;16.75;;;;;-143.90;100.00;76363.22;4965543;28;101475;-72
2024/02/21 07:01:08;;;;;;;;;16.00;13.75;;;;;-143.90;100.00;76361.16;4963161;28;103708;-72
2024/02/21 07:03:38;;;;;;;;;19.50;16.50;;;;;-143.90;100.00;76354.94;4965167;28;102598;-72
2024/02/21 07:06:04;;;;;;;;;17.25;16.25;;;;;-143.90;100.00;76354.94;4966710;28;101786;-71
2024/02/21 07:08:31;;;;;;;;;16.75;16.50;;;;;-143.90;100.00;76359.09;4967616;28;104289;-71
2024/02/21 07:10:58;;;;;;;;;19.25;18.00;;;;;-143.90;100.00;76367.34;4967487;28;103533;-72
2024/02/21 07:13:25;;;;;;;;;18.50;14.25;;;;;-143.90;100.00;76354.94;4958198;28;101665;-72
2024/02/21 07:15:52;;;;;;;;;18.25;16.25;;;;;-143.90;100.00;76357.00;4964605;28;101477;-72
2024/02/21 07:18:18;;;;;;;;;22.00;18.50;;;;;-143.90;100.00;76350.81;4964721;28;101669;-72
2024/02/21 07:20:45;;;;;;;;;17.00;16.00;;;;;-143.90;100.00;76340.47;4962743;28;103497;-72
2024/02/21 07:23:12;;;;;;;;;18.00;17.25;;;;;-143.90;100.00;76323.94;4959419;28;102018;-72
2024/02/21 07:25:39;;;;;;;;;23.25;20.00;;;;;-143.90;100.00;76326.00;4949157;28;102002;-72
2024/02/21 07:28:06;;;;;;;;;20.75;16.75;;;;;-143.90;100.00;76315.66;4947404;28;101559;-72
2024/02/21 07:30:33;;;;;;;;;21.00;16.75;;;;;-143.90;100.00;76326.00;4945165;28;103537;-73
2024/02/21 07:33:00;;;;;;;;;13.00;11.50;;;;;-143.90;100.00;76317.72;4946721;28;101571;-72
2024/02/21 07:35:27;;;;;;;;;8.75;6.50;;;;;-143.90;100.00;76321.84;4940261;28;104890;-72
2024/02/21 07:37:54;;;;;;;;;17.75;15.25;;;;;-143.90;100.00;76321.84;4965972;27;102786;-72
2024/02/21 07:40:20;;;;;;;;;15.50;14.25;;;;;-143.90;100.00;76317.72;4965893;28;103302;-72
2024/02/21 07:42:47;;;;;;;;;15.50;13.25;;;;;-143.90;100.00;76313.59;4947752;28;102326;-72
2024/02/21 07:45:18;;;;;;;;;17.50;16.75;;;;;-143.90;100.00;76305.31;4944823;28;101979;-72
2024/02/21 07:47:45;;;;;;;;;7.50;6.75;;;;;-143.90;100.00;76290.84;4961014;28;101801;-72
2024/02/21 07:50:12;;;;;;;;;15.75;13.50;;;;;-143.90;100.00;76286.69;4964002;28;103315;-72
2024/02/21 07:52:39;;;;;;;;;14.75;13.00;;;;;-143.90;100.00;76274.28;4960192;28;101810;-71
2024/02/21 07:55:06;;;;;;;;;15.25;13.00;;;;;-143.90;100.00;76263.97;4963725;28;101552;-72
2024/02/21 07:57:33;;;;;;;;;19.25;13.50;;;;;-143.90;100.00;76255.69;4963648;28;101535;-72
2024/02/21 07:59:59;;;;;;;;;10.75;10.75;;;;;-143.90;100.00;76241.22;4966282;28;103416;-72
2024/02/21 08:02:26;;;;;;;;;17.50;14.50;;;;;-143.90;100.00;76239.13;4957146;28;101435;-72
2024/02/21 08:04:53;;;;;;;;;16.25;12.50;;;;;-143.90;100.00;76210.19;4948413;28;101460;-72
2024/02/21 08:07:20;;;;;;;;;11.00;9.75;;;;;-143.90;100.00;76185.38;4950618;28;105614;-72
2024/02/21 08:09:47;;;;;;;;;14.25;12.50;;;;;-143.90;100.00;76189.50;4958276;28;103781;-72
2024/02/21 08:12:13;;;;;;;;;20.50;15.00;;;;;-143.90;100.00;76185.38;4958727;28;102002;-72
2024/02/21 08:14:40;;;;;;;;;15.75;12.25;;;;;-143.90;100.00;76177.09;4952163;28;102082;-72
2024/02/21 08:17:07;;;;;;;;;13.50;11.75;;;;;-143.90;100.00;76172.97;4961399;28;101551;-72
2024/02/21 08:19:33;;;;;;;;;13.25;12.00;;;;;-143.90;100.00;76177.09;4959632;28;103369;-72
2024/02/21 08:22:00;;;;;;;;;11.75;11.00;;;;;-143.90;100.00;76172.97;4963394;28;102462;-72
2024/02/21 08:24:27;;;;;;;;;17.50;12.50;;;;;-143.90;100.00;76168.81;4965840;28;101499;-72
2024/02/21 08:26:54;;;;;;;;;14.00;12.00;;;;;-143.90;100.00;76152.28;4962894;28;101941;-72
2024/02/21 08:29:21;;;;;;;;;11.75;11.25;;;;;-143.90;100.00;76139.88;4956382;28;103409;-72
2024/02/21 08:31:48;;;;;;;;;11.50;10.25;;;;;-143.90;100.00;76108.84;4963300;28;102011;-73
2024/02/21 08:34:15;;;;;;;;;18.50;16.25;;;;;-143.90;100.00;76094.38;4953011;28;101488;-72
2024/02/21 08:36:43;;;;;;;;;17.75;16.75;;;;;-143.90;100.00;76077.84;4968673;28;101758;-73
2024/02/21 08:39:10;;;;;;;;;13.50;13.25;;;;;-143.90;100.00;76050.97;4958985;28;108157;-73
2024/02/21 08:41:38;;;;;;;;;18.75;16.00;;;;;-143.90;100.00;76034.41;4958803;28;101869;-72
2024/02/21 08:44:27;;;;;;;;;25.00;18.25;;;;;-143.90;100.00;76040.63;4963038;28;102229;-72
2024/02/21 08:46:54;;;;;;;;;29.75;21.75;;;;;-143.90;100.00;76036.47;4965337;28;101986;-72
2024/02/21 08:49:22;;;;;;;;;23.50;18.00;;;;;-143.90;100.00;76036.47;4956859;28;103316;-72
2024/02/21 08:51:49;;;;;;;;;21.25;18.75;;;;;-143.90;100.00;76028.22;4964144;28;101521;-73
2024/02/21 08:54:16;;;;;;;;;27.00;22.25;;;;;-143.90;100.00;76005.47;4979230;28;101380;-72
2024/02/21 08:56:43;;;;;;;;;19.75;15.50;;;;;-143.90;100.00;76007.53;4964800;28;101483;-72
2024/02/21 08:59:10;;;;;;;;;20.00;15.50;;;;;-143.90;100.00;76007.53;4963902;28;108192;-73
2024/02/21 09:01:38;;;;;;;;;23.50;19.25;;;;;-143.90;100.00;76003.41;4964610;28;101655;-72
2024/02/21 09:04:05;;;;;;;;;21.50;19.25;;;;;-143.90;100.00;76011.66;4965775;28;101566;-72
2024/02/21 09:06:33;;;;;;;;;15.75;11.75;;;;;-143.90;100.00;75993.06;4966259;28;101802;-72
2024/02/21 09:09:00;;;;;;;;;31.75;21.00;;;;;-143.90;100.00;75976.53;4953817;28;103575;-73
2024/02/21 09:11:27;;;;;;;;;21.75;20.25;;;;;-143.90;100.00;75957.91;4958094;28;101569;-73
2024/02/21 09:13:55;;;;;;;;;15.50;14.00;;;;;-143.90;100.00;75966.19;4961539;28;101493;-73
2024/02/21 09:16:22;;;;;;;;;23.00;16.50;;;;;-143.90;100.00;75945.50;4963603;28;101758;-72
2024/02/21 09:18:50;;;;;;;;;20.75;18.75;;;;;-143.90;100.00;75941.38;4962606;28;103365;-72
2024/02/21 09:21:17;;;;;;;;;12.00;11.75;;;;;-143.90;100.00;75941.38;4955756;28;102970;-72
2024/02/21 09:23:45;;;;;;;;;24.75;18.25;;;;;-143.90;100.00;75916.56;4963603;28;101919;-72
2024/02/21 09:26:15;;;;;;;;;19.00;17.25;;;;;-143.90;100.00;75918.63;4962849;28;101555;-71
2024/02/21 09:28:46;;;;;;;;;17.50;16.25;;;;;-143.90;100.00;75922.75;4962453;28;107975;-72
2024/02/21 09:31:15;;;;;;;;;15.25;13.25;;;;;-143.90;100.00;75937.22;4958661;28;101614;-72
2024/02/21 09:33:41;;;;;;;;;16.75;15.50;;;;;-143.90;100.00;75900.00;4962748;28;101893;-73
2024/02/21 09:36:08;;;;;;;;;19.00;15.75;;;;;-143.90;100.00;75889.66;4965706;28;101874;-71
2024/02/21 09:38:35;;;;;;;;;24.50;20.00;;;;;-143.90;100.00;75871.06;4947662;28;103668;-72
2024/02/21 09:41:26;;;;;;;;;24.00;20.50;;;;;-143.90;100.00;75858.66;4946043;28;101904;-72
2024/02/21 09:43:53;;;;;;;;;26.00;21.25;;;;;-143.90;100.00;75844.19;4965501;28;101539;-72
2024/02/21 09:46:34;;;;;;;;;22.75;20.50;;;;;-143.90;100.00;75802.81;4969308;28;103883;-72
2024/02/21 09:49:26;;;;;;;;;15.50;14.00;;;;;-143.90;100.00;75784.22;4967934;28;103501;-72
2024/02/21 09:51:55;;;;;;;;;18.50;16.00;;;;;-143.90;100.00;75794.56;4963557;28;101716;-72
2024/02/21 09:54:21;;;;;;;;;16.75;16.00;;;;;-143.90;100.00;75806.97;4963469;28;101743;-72
2024/02/21 09:56:49;;;;;;;;;18.00;14.50;;;;;-143.90;100.00;75796.63;4968458;28;101721;-73
2024/02/21 09:59:16;;;;;;;;;12.25;10.75;;;;;-143.90;100.00;75806.97;4957513;28;103508;-71
2024/02/21 10:01:44;;;;;;;;;14.75;12.00;;;;;-143.90;100.00;75811.09;4968226;28;103796;-72
2024/02/21 10:04:11;;;;;;;;;18.50;15.00;;;;;-143.90;100.00;75813.16;4962814;28;101865;-72
2024/02/21 10:06:39;;;;;;;;;17.25;13.25;;;;;-143.90;100.00;75806.97;4968236;28;101580;-72
2024/02/21 10:09:06;;;;;;;;;15.75;14.00;;;;;-143.90;100.00;75817.31;4963986;28;103481;-71
2024/02/21 10:11:36;;;;;;;;;12.00;9.25;;;;;-143.90;100.00;75837.97;4962113;28;101433;-72
2024/02/21 10:14:07;;;;;;;;;15.50;12.75;;;;;-143.90;100.00;75850.38;4966109;28;102271;-72
2024/02/21 10:16:34;;;;;;;;;10.50;9.00;;;;;-143.90;100.00;75821.44;4967536;28;101747;-72
2024/02/21 10:19:03;;;;;;;;;17.25;15.00;;;;;-143.90;100.00;75792.50;4961403;28;103387;-72
2024/02/21 10:21:30;;;;;;;;;14.00;12.00;;;;;-143.90;100.00;75761.47;4952771;28;101841;-73
2024/02/21 10:23:57;;;;;;;;;9.00;7.25;;;;;-143.90;100.00;75775.94;4963558;28;101908;-72
2024/02/21 10:26:24;;;;;;;;;12.50;10.00;;;;;-143.90;100.00;75792.50;4967002;28;101856;-72
2024/02/21 10:28:54;;;;;;;;;10.50;9.75;;;;;-143.90;100.00;75802.81;4963240;28;103441;-72
2024/02/21 10:31:25;;;;;;;;;13.75;10.50;;;;;-143.90;100.00;75780.09;4960382;28;101573;-72
2024/02/21 10:34:05;;;;;;;;;16.00;12.50;;;;;-143.90;100.00;75775.94;4963298;28;101553;-72
2024/02/21 10:36:32;;;;;;;;;15.25;9.75;;;;;-143.90;100.00;75780.09;4967041;28;103457;-72
2024/02/21 10:38:59;;;;;;;;;9.75;8.00;;;;;-143.90;100.00;75771.81;4964364;28;103427;-73
2024/02/21 10:41:27;;;;;;;;;15.00;11.75;;;;;-143.90;100.00;75778.00;4956827;28;104254;-72
2024/02/21 10:43:55;;;;;;;;;10.00;9.50;;;;;-143.90;100.00;75775.94;4962831;28;101901;-73
2024/02/21 10:46:24;;;;;;;;;15.00;10.00;;;;;-143.90;100.00;75771.81;4966580;28;101676;-72
2024/02/21 10:49:01;;;;;;;;;11.00;9.75;;;;;-143.90;100.00;75773.88;4963436;28;103362;-73
2024/02/21 10:51:34;;;;;;;;;16.25;13.00;;;;;-143.90;100.00;75771.81;4957174;28;101484;-73
2024/02/21 10:54:07;;;;;;;;;11.75;7.75;;;;;-143.90;100.00;75767.69;4964862;28;101865;-73